sensor_id;sensor_type;location;lat;lon;timestamp;pressure;altitude;pressure_sealevel;temperature;humidity
75513;BME280;64090;49.770;18.760;2023-06-05T00:07:32;98027.42;;;9.73;65.57
75513;BME280;64090;49.770;18.760;2023-06-05T00:10:37;98029.36;;;9.65;65.73
75513;BME280;64090;49.770;18.760;2023-06-05T00:13:43;98028.90;;;9.60;66.34
75513;BME280;64090;49.770;18.760;2023-06-05T00:17:27;98033.41;;;9.57;66.44
75513;BME280;64090;49.770;18.760;2023-06-05T00:20:33;98028.61;;;9.59;66.50
75513;BME280;64090;49.770;18.760;2023-06-05T00:23:38;98023.55;;;9.65;67.26
75513;BME280;64090;49.770;18.760;2023-06-05T00:27:12;98022.89;;;9.69;67.32
75513;BME280;64090;49.770;18.760;2023-06-05T00:30:20;98020.81;;;9.71;67.70
75513;BME280;64090;49.770;18.760;2023-06-05T00:33:23;98021.00;;;9.74;66.67
75513;BME280;64090;49.770;18.760;2023-06-05T00:36:27;98020.45;;;9.75;66.51
75513;BME280;64090;49.770;18.760;2023-06-05T00:39:54;98023.67;;;9.76;66.73
75513;BME280;64090;49.770;18.760;2023-06-05T00:42:57;98024.79;;;9.76;66.62
75513;BME280;64090;49.770;18.760;2023-06-05T00:46:02;98025.22;;;9.74;66.71
75513;BME280;64090;49.770;18.760;2023-06-05T00:49:33;98019.85;;;9.72;66.92
75513;BME280;64090;49.770;18.760;2023-06-05T00:53:04;98021.95;;;9.69;66.64
75513;BME280;64090;49.770;18.760;2023-06-05T00:56:18;98023.66;;;9.68;67.28
75513;BME280;64090;49.770;18.760;2023-06-05T00:59:44;98020.95;;;9.66;67.27
75513;BME280;64090;49.770;18.760;2023-06-05T01:03:17;98018.82;;;9.65;66.91
75513;BME280;64090;49.770;18.760;2023-06-05T01:06:49;98015.76;;;9.65;67.49
75513;BME280;64090;49.770;18.760;2023-06-05T01:10:14;98016.71;;;9.61;67.66
75513;BME280;64090;49.770;18.760;2023-06-05T01:13:39;98014.67;;;9.58;68.17
75513;BME280;64090;49.770;18.760;2023-06-05T01:17:08;98011.27;;;9.50;68.07
75513;BME280;64090;49.770;18.760;2023-06-05T01:20:53;98013.02;;;9.41;67.57
75513;BME280;64090;49.770;18.760;2023-06-05T01:24:41;98013.35;;;9.32;67.45
75513;BME280;64090;49.770;18.760;2023-06-05T01:31:12;98012.52;;;9.20;68.45
75513;BME280;64090;49.770;18.760;2023-06-05T01:34:19;98013.01;;;9.17;68.50
75513;BME280;64090;49.770;18.760;2023-06-05T01:37:26;98013.44;;;9.16;68.53
75513;BME280;64090;49.770;18.760;2023-06-05T01:40:33;98014.84;;;9.17;68.78
75513;BME280;64090;49.770;18.760;2023-06-05T01:43:42;98013.63;;;9.18;68.59
75513;BME280;64090;49.770;18.760;2023-06-05T01:46:46;98012.80;;;9.20;68.90
75513;BME280;64090;49.770;18.760;2023-06-05T01:49:51;98015.50;;;9.22;68.54
75513;BME280;64090;49.770;18.760;2023-06-05T01:52:55;98014.67;;;9.21;68.92
75513;BME280;64090;49.770;18.760;2023-06-05T01:56:05;98016.34;;;9.20;68.85
75513;BME280;64090;49.770;18.760;2023-06-05T01:59:11;98016.27;;;9.18;68.57
75513;BME280;64090;49.770;18.760;2023-06-05T02:02:22;98014.61;;;9.17;69.59
75513;BME280;64090;49.770;18.760;2023-06-05T02:05:27;98018.20;;;9.15;69.25
75513;BME280;64090;49.770;18.760;2023-06-05T02:08:57;98019.54;;;9.08;69.27
75513;BME280;64090;49.770;18.760;2023-06-05T02:12:06;98015.66;;;9.01;69.19
75513;BME280;64090;49.770;18.760;2023-06-05T02:15:14;98011.89;;;8.92;69.55
75513;BME280;64090;49.770;18.760;2023-06-05T02:18:18;98011.98;;;8.84;69.25
75513;BME280;64090;49.770;18.760;2023-06-05T02:21:25;98014.77;;;8.78;69.82
75513;BME280;64090;49.770;18.760;2023-06-05T02:24:49;98014.64;;;8.75;70.46
75513;BME280;64090;49.770;18.760;2023-06-05T02:28:36;98014.82;;;8.72;71.39
75513;BME280;64090;49.770;18.760;2023-06-05T02:32:22;98015.77;;;8.70;70.68
75513;BME280;64090;49.770;18.760;2023-06-05T02:35:58;98015.24;;;8.70;69.81
75513;BME280;64090;49.770;18.760;2023-06-05T02:39:22;98013.45;;;8.69;70.74
75513;BME280;64090;49.770;18.760;2023-06-05T02:42:26;98015.48;;;8.71;70.64
75513;BME280;64090;49.770;18.760;2023-06-05T02:45:50;98011.45;;;8.74;70.27
75513;BME280;64090;49.770;18.760;2023-06-05T02:49:03;98009.98;;;8.77;71.20
75513;BME280;64090;49.770;18.760;2023-06-05T02:52:06;98005.27;;;8.84;70.52
75513;BME280;64090;49.770;18.760;2023-06-05T02:55:31;98008.53;;;8.90;70.69
75513;BME280;64090;49.770;18.760;2023-06-05T02:58:36;98010.88;;;9.00;70.70
75513;BME280;64090;49.770;18.760;2023-06-05T03:01:40;98008.32;;;9.27;70.55
75513;BME280;64090;49.770;18.760;2023-06-05T03:04:46;98005.24;;;9.68;70.21
75513;BME280;64090;49.770;18.760;2023-06-05T03:08:01;98004.16;;;10.19;70.20
75513;BME280;64090;49.770;18.760;2023-06-05T03:11:24;98009.19;;;10.84;69.49
75513;BME280;64090;49.770;18.760;2023-06-05T03:14:29;98004.89;;;11.50;68.45
75513;BME280;64090;49.770;18.760;2023-06-05T03:17:34;98003.84;;;12.17;67.21
75513;BME280;64090;49.770;18.760;2023-06-05T03:20:40;98005.07;;;12.83;65.78
75513;BME280;64090;49.770;18.760;2023-06-05T03:23:44;98000.95;;;13.60;64.61
75513;BME280;64090;49.770;18.760;2023-06-05T03:26:47;98002.80;;;14.23;61.58
75513;BME280;64090;49.770;18.760;2023-06-05T03:29:50;98006.69;;;14.60;60.04
75513;BME280;64090;49.770;18.760;2023-06-05T03:32:53;98006.49;;;15.24;59.11
75513;BME280;64090;49.770;18.760;2023-06-05T03:36:01;98006.85;;;15.92;56.50
75513;BME280;64090;49.770;18.760;2023-06-05T03:39:05;98004.77;;;16.59;55.27
75513;BME280;64090;49.770;18.760;2023-06-05T03:42:28;98008.21;;;17.21;52.63
75513;BME280;64090;49.770;18.760;2023-06-05T03:45:33;98006.38;;;17.64;52.41
75513;BME280;64090;49.770;18.760;2023-06-05T03:48:57;98007.66;;;17.22;53.55
75513;BME280;64090;49.770;18.760;2023-06-05T03:52:24;98005.02;;;16.66;55.34
75513;BME280;64090;49.770;18.760;2023-06-05T03:55:32;98005.90;;;16.55;55.65
75513;BME280;64090;49.770;18.760;2023-06-05T03:58:56;98007.09;;;16.18;55.94
75513;BME280;64090;49.770;18.760;2023-06-05T04:02:02;98008.52;;;16.37;56.04
75513;BME280;64090;49.770;18.760;2023-06-05T04:05:15;98008.45;;;16.85;54.51
75513;BME280;64090;49.770;18.760;2023-06-05T04:08:23;98010.64;;;16.55;55.05
75513;BME280;64090;49.770;18.760;2023-06-05T04:11:30;98010.44;;;16.79;54.55
75513;BME280;64090;49.770;18.760;2023-06-05T04:14:36;98010.45;;;17.53;52.96
75513;BME280;64090;49.770;18.760;2023-06-05T04:17:48;98006.61;;;17.51;53.11
75513;BME280;64090;49.770;18.760;2023-06-05T04:20:51;98008.81;;;17.55;52.31
75513;BME280;64090;49.770;18.760;2023-06-05T04:23:55;98012.83;;;17.22;53.60
75513;BME280;64090;49.770;18.760;2023-06-05T04:26:58;98013.17;;;17.01;54.44
75513;BME280;64090;49.770;18.760;2023-06-05T04:30:06;98013.88;;;16.85;54.61
75513;BME280;64090;49.770;18.760;2023-06-05T04:33:11;98009.90;;;16.67;54.56
75513;BME280;64090;49.770;18.760;2023-06-05T04:36:34;98010.69;;;16.45;54.32
75513;BME280;64090;49.770;18.760;2023-06-05T04:39:37;98010.58;;;16.31;54.55
75513;BME280;64090;49.770;18.760;2023-06-05T04:42:40;98011.62;;;16.28;55.04
75513;BME280;64090;49.770;18.760;2023-06-05T04:45:58;98009.52;;;16.35;55.11
75513;BME280;64090;49.770;18.760;2023-06-05T04:49:03;98006.77;;;16.37;54.92
75513;BME280;64090;49.770;18.760;2023-06-05T04:52:08;98006.85;;;16.11;55.22
75513;BME280;64090;49.770;18.760;2023-06-05T04:55:11;98004.54;;;16.07;55.40
75513;BME280;64090;49.770;18.760;2023-06-05T04:58:21;98008.63;;;16.29;55.82
75513;BME280;64090;49.770;18.760;2023-06-05T05:01:25;98009.75;;;16.59;56.39
75513;BME280;64090;49.770;18.760;2023-06-05T05:04:34;98011.02;;;16.98;56.38
75513;BME280;64090;49.770;18.760;2023-06-05T05:07:37;98008.95;;;17.31;54.82
75513;BME280;64090;49.770;18.760;2023-06-05T05:10:44;98008.89;;;17.60;54.38
75513;BME280;64090;49.770;18.760;2023-06-05T05:13:54;98002.74;;;17.91;52.94
75513;BME280;64090;49.770;18.760;2023-06-05T05:16:58;98002.05;;;18.12;52.02
75513;BME280;64090;49.770;18.760;2023-06-05T05:20:02;98007.48;;;18.45;51.79
75513;BME280;64090;49.770;18.760;2023-06-05T05:23:07;98017.58;;;18.83;51.35
75513;BME280;64090;49.770;18.760;2023-06-05T05:26:31;98021.44;;;18.99;49.93
75513;BME280;64090;49.770;18.760;2023-06-05T05:29:34;98022.63;;;19.46;49.92
75513;BME280;64090;49.770;18.760;2023-06-05T05:32:37;98021.95;;;19.92;50.51
75513;BME280;64090;49.770;18.760;2023-06-05T05:35:40;98016.74;;;20.30;49.97
75513;BME280;64090;49.770;18.760;2023-06-05T05:38:45;98015.89;;;20.59;49.99
75513;BME280;64090;49.770;18.760;2023-06-05T05:41:49;98018.66;;;20.84;48.82
75513;BME280;64090;49.770;18.760;2023-06-05T05:44:52;98016.45;;;20.83;47.56
75513;BME280;64090;49.770;18.760;2023-06-05T05:47:55;98019.73;;;20.82;47.64
75513;BME280;64090;49.770;18.760;2023-06-05T05:51:01;98022.75;;;20.81;47.51
75513;BME280;64090;49.770;18.760;2023-06-05T05:54:03;98018.52;;;20.77;47.07
75513;BME280;64090;49.770;18.760;2023-06-05T05:57:06;98017.70;;;20.71;46.80
75513;BME280;64090;49.770;18.760;2023-06-05T06:00:14;98015.70;;;20.86;45.98
75513;BME280;64090;49.770;18.760;2023-06-05T06:03:19;98013.85;;;21.24;45.86
75513;BME280;64090;49.770;18.760;2023-06-05T06:06:24;98019.02;;;21.58;45.03
75513;BME280;64090;49.770;18.760;2023-06-05T06:09:29;98021.08;;;21.76;44.31
75513;BME280;64090;49.770;18.760;2023-06-05T06:12:43;98022.31;;;21.95;43.88
75513;BME280;64090;49.770;18.760;2023-06-05T06:15:50;98027.45;;;22.11;43.56
75513;BME280;64090;49.770;18.760;2023-06-05T06:18:53;98027.12;;;22.14;44.41
75513;BME280;64090;49.770;18.760;2023-06-05T06:22:00;98028.70;;;22.02;43.62
75513;BME280;64090;49.770;18.760;2023-06-05T06:25:03;98029.98;;;22.12;43.30
75513;BME280;64090;49.770;18.760;2023-06-05T06:28:06;98031.98;;;22.26;42.91
75513;BME280;64090;49.770;18.760;2023-06-05T06:31:10;98034.60;;;21.91;43.49
75513;BME280;64090;49.770;18.760;2023-06-05T06:34:29;98038.07;;;21.93;44.25
75513;BME280;64090;49.770;18.760;2023-06-05T06:37:32;98034.88;;;22.02;43.70
75513;BME280;64090;49.770;18.760;2023-06-05T06:40:40;98032.17;;;22.21;43.29
75513;BME280;64090;49.770;18.760;2023-06-05T06:43:43;98036.15;;;22.36;43.58
75513;BME280;64090;49.770;18.760;2023-06-05T06:46:46;98034.90;;;22.37;43.37
75513;BME280;64090;49.770;18.760;2023-06-05T06:49:49;98029.60;;;22.36;42.91
75513;BME280;64090;49.770;18.760;2023-06-05T06:52:53;98031.38;;;22.43;43.26
75513;BME280;64090;49.770;18.760;2023-06-05T06:55:56;98031.62;;;22.47;42.61
75513;BME280;64090;49.770;18.760;2023-06-05T06:59:00;98024.13;;;22.54;42.54
75513;BME280;64090;49.770;18.760;2023-06-05T07:02:16;98028.83;;;22.61;43.12
75513;BME280;64090;49.770;18.760;2023-06-05T07:05:22;98031.88;;;22.56;43.45
75513;BME280;64090;49.770;18.760;2023-06-05T07:08:25;98032.25;;;22.57;43.39
75513;BME280;64090;49.770;18.760;2023-06-05T07:11:29;98025.48;;;22.65;43.61
75513;BME280;64090;49.770;18.760;2023-06-05T07:14:32;98028.38;;;22.64;42.82
75513;BME280;64090;49.770;18.760;2023-06-05T07:17:39;98024.47;;;22.53;43.05
75513;BME280;64090;49.770;18.760;2023-06-05T07:20:42;98028.52;;;22.53;43.28
75513;BME280;64090;49.770;18.760;2023-06-05T07:23:47;98020.48;;;22.57;43.54
75513;BME280;64090;49.770;18.760;2023-06-05T07:27:00;98028.70;;;22.66;44.24
75513;BME280;64090;49.770;18.760;2023-06-05T07:30:09;98028.23;;;22.42;43.99
75513;BME280;64090;49.770;18.760;2023-06-05T07:33:12;98031.18;;;22.50;44.26
75513;BME280;64090;49.770;18.760;2023-06-05T07:36:52;98031.38;;;22.72;44.19
75513;BME280;64090;49.770;18.760;2023-06-05T07:39:56;98028.98;;;22.77;43.23
75513;BME280;64090;49.770;18.760;2023-06-05T07:42:59;98030.70;;;22.69;43.27
75513;BME280;64090;49.770;18.760;2023-06-05T07:46:03;98029.36;;;22.62;43.33
75513;BME280;64090;49.770;18.760;2023-06-05T07:49:12;98026.05;;;22.61;43.44
75513;BME280;64090;49.770;18.760;2023-06-05T07:52:19;98027.02;;;22.66;43.08
75513;BME280;64090;49.770;18.760;2023-06-05T07:55:21;98026.38;;;22.78;42.53
75513;BME280;64090;49.770;18.760;2023-06-05T07:58:25;98024.02;;;22.82;42.91
75513;BME280;64090;49.770;18.760;2023-06-05T08:01:38;98021.52;;;22.85;42.98
75513;BME280;64090;49.770;18.760;2023-06-05T08:04:41;98018.34;;;22.93;42.28
75513;BME280;64090;49.770;18.760;2023-06-05T08:07:45;98021.36;;;23.00;41.81
75513;BME280;64090;49.770;18.760;2023-06-05T08:10:48;98014.13;;;23.05;41.75
75513;BME280;64090;49.770;18.760;2023-06-05T08:13:51;98010.18;;;23.13;40.83
75513;BME280;64090;49.770;18.760;2023-06-05T08:16:54;98016.69;;;23.22;41.11
75513;BME280;64090;49.770;18.760;2023-06-05T08:19:58;98013.84;;;23.26;40.74
75513;BME280;64090;49.770;18.760;2023-06-05T08:23:02;98010.73;;;23.31;40.88
75513;BME280;64090;49.770;18.760;2023-06-05T08:26:09;98016.06;;;23.43;40.55
75513;BME280;64090;49.770;18.760;2023-06-05T08:29:16;98020.42;;;23.49;40.10
75513;BME280;64090;49.770;18.760;2023-06-05T08:32:19;98025.09;;;23.56;39.66
75513;BME280;64090;49.770;18.760;2023-06-05T08:35:26;98028.29;;;23.74;39.94
75513;BME280;64090;49.770;18.760;2023-06-05T08:38:30;98028.39;;;23.90;38.95
75513;BME280;64090;49.770;18.760;2023-06-05T08:41:38;98029.20;;;24.03;38.54
75513;BME280;64090;49.770;18.760;2023-06-05T08:44:41;98024.71;;;24.19;38.44
75513;BME280;64090;49.770;18.760;2023-06-05T08:48:04;98030.45;;;24.15;37.39
75513;BME280;64090;49.770;18.760;2023-06-05T08:51:19;98028.98;;;24.10;37.76
75513;BME280;64090;49.770;18.760;2023-06-05T08:54:27;98031.38;;;24.19;37.72
75513;BME280;64090;49.770;18.760;2023-06-05T08:57:35;98027.67;;;24.27;37.65
75513;BME280;64090;49.770;18.760;2023-06-05T09:00:41;98027.62;;;24.36;37.16
75513;BME280;64090;49.770;18.760;2023-06-05T09:03:44;98024.50;;;24.34;37.18
75513;BME280;64090;49.770;18.760;2023-06-05T09:06:47;98027.32;;;24.34;37.81
75513;BME280;64090;49.770;18.760;2023-06-05T09:09:50;98023.98;;;24.49;37.57
75513;BME280;64090;49.770;18.760;2023-06-05T09:15:56;98025.13;;;24.48;37.19
75513;BME280;64090;49.770;18.760;2023-06-05T09:19:01;98026.46;;;24.29;37.22
75513;BME280;64090;49.770;18.760;2023-06-05T09:22:11;98024.51;;;24.28;37.30
75513;BME280;64090;49.770;18.760;2023-06-05T09:25:16;98022.58;;;24.48;37.64
75513;BME280;64090;49.770;18.760;2023-06-05T09:28:23;98018.74;;;24.75;36.85
75513;BME280;64090;49.770;18.760;2023-06-05T09:31:26;98018.20;;;24.74;36.10
75513;BME280;64090;49.770;18.760;2023-06-05T09:34:32;98018.20;;;24.75;36.02
75513;BME280;64090;49.770;18.760;2023-06-05T09:37:44;98013.84;;;24.84;36.49
75513;BME280;64090;49.770;18.760;2023-06-05T09:40:49;98014.52;;;24.99;36.52
75513;BME280;64090;49.770;18.760;2023-06-05T09:43:56;98011.39;;;25.27;36.50
75513;BME280;64090;49.770;18.760;2023-06-05T09:47:01;98010.05;;;25.45;36.14
75513;BME280;64090;49.770;18.760;2023-06-05T09:50:20;98011.73;;;25.69;35.27
75513;BME280;64090;49.770;18.760;2023-06-05T09:53:48;98009.90;;;25.95;35.91
75513;BME280;64090;49.770;18.760;2023-06-05T09:57:01;98007.97;;;26.40;34.78
75513;BME280;64090;49.770;18.760;2023-06-05T10:00:09;98006.77;;;26.51;33.99
75513;BME280;64090;49.770;18.760;2023-06-05T10:03:27;98004.64;;;26.69;34.65
75513;BME280;64090;49.770;18.760;2023-06-05T10:06:36;98007.41;;;27.06;34.04
75513;BME280;64090;49.770;18.760;2023-06-05T10:09:40;98000.73;;;27.28;33.12
75513;BME280;64090;49.770;18.760;2023-06-05T10:12:47;97999.50;;;27.32;33.17
75513;BME280;64090;49.770;18.760;2023-06-05T10:15:52;97999.52;;;27.40;33.49
75513;BME280;64090;49.770;18.760;2023-06-05T10:18:57;97999.42;;;27.62;33.67
75513;BME280;64090;49.770;18.760;2023-06-05T10:22:02;97998.27;;;27.90;33.19
75513;BME280;64090;49.770;18.760;2023-06-05T10:25:07;97994.91;;;28.17;31.74
75513;BME280;64090;49.770;18.760;2023-06-05T10:28:21;97992.62;;;28.02;31.68
75513;BME280;64090;49.770;18.760;2023-06-05T10:31:46;97988.58;;;28.04;31.75
75513;BME280;64090;49.770;18.760;2023-06-05T10:35:01;97983.08;;;28.11;31.67
75513;BME280;64090;49.770;18.760;2023-06-05T10:38:19;97981.86;;;28.24;31.27
75513;BME280;64090;49.770;18.760;2023-06-05T10:41:33;97987.73;;;28.11;31.62
75513;BME280;64090;49.770;18.760;2023-06-05T10:44:43;97987.02;;;28.21;33.44
75513;BME280;64090;49.770;18.760;2023-06-05T10:47:50;97983.79;;;28.42;33.99
75513;BME280;64090;49.770;18.760;2023-06-05T10:51:31;97989.79;;;28.63;33.34
75513;BME280;64090;49.770;18.760;2023-06-05T10:58:12;97987.24;;;28.96;32.90
75513;BME280;64090;49.770;18.760;2023-06-05T11:01:19;97983.79;;;28.90;31.89
75513;BME280;64090;49.770;18.760;2023-06-05T11:04:24;97983.08;;;28.88;31.46
75513;BME280;64090;49.770;18.760;2023-06-05T11:07:28;97982.14;;;28.83;31.34
75513;BME280;64090;49.770;18.760;2023-06-05T11:11:06;97978.27;;;28.75;31.41
75513;BME280;64090;49.770;18.760;2023-06-05T11:14:14;97981.39;;;28.64;32.10
75513;BME280;64090;49.770;18.760;2023-06-05T11:17:34;97980.27;;;28.33;33.14
75513;BME280;64090;49.770;18.760;2023-06-05T11:24:15;97984.73;;;27.92;34.73
75513;BME280;64090;49.770;18.760;2023-06-05T11:27:45;97985.98;;;27.78;34.76
75513;BME280;64090;49.770;18.760;2023-06-05T11:30:50;97985.45;;;27.71;35.64
75513;BME280;64090;49.770;18.760;2023-06-05T11:33:54;97987.48;;;27.89;34.98
75513;BME280;64090;49.770;18.760;2023-06-05T11:37:14;97989.08;;;28.08;34.78
75513;BME280;64090;49.770;18.760;2023-06-05T11:40:25;97988.15;;;28.44;33.15
75513;BME280;64090;49.770;18.760;2023-06-05T11:43:29;97984.52;;;28.88;32.41
75513;BME280;64090;49.770;18.760;2023-06-05T11:46:50;97983.86;;;29.15;32.25
75513;BME280;64090;49.770;18.760;2023-06-05T11:49:54;97983.23;;;29.55;31.89
75513;BME280;64090;49.770;18.760;2023-06-05T11:53:10;97980.16;;;29.72;31.86
75513;BME280;64090;49.770;18.760;2023-06-05T11:56:19;97977.77;;;29.62;33.40
75513;BME280;64090;49.770;18.760;2023-06-05T11:59:24;97979.02;;;29.38;33.11
75513;BME280;64090;49.770;18.760;2023-06-05T12:02:41;97973.89;;;28.98;33.65
75513;BME280;64090;49.770;18.760;2023-06-05T12:06:00;97974.47;;;28.65;33.94
75513;BME280;64090;49.770;18.760;2023-06-05T12:09:10;97972.58;;;28.48;34.68
75513;BME280;64090;49.770;18.760;2023-06-05T12:12:30;97969.70;;;28.43;35.38
75513;BME280;64090;49.770;18.760;2023-06-05T12:15:33;97968.33;;;28.29;35.61
75513;BME280;64090;49.770;18.760;2023-06-05T12:18:56;97968.18;;;28.10;35.71
75513;BME280;64090;49.770;18.760;2023-06-05T12:22:15;97965.15;;;27.92;35.97
75513;BME280;64090;49.770;18.760;2023-06-05T12:25:39;97961.64;;;27.81;36.87
75513;BME280;64090;49.770;18.760;2023-06-05T12:28:44;97963.48;;;27.69;36.74
75513;BME280;64090;49.770;18.760;2023-06-05T12:31:48;97962.55;;;27.42;37.02
75513;BME280;64090;49.770;18.760;2023-06-05T12:35:04;97953.93;;;27.28;37.37
75513;BME280;64090;49.770;18.760;2023-06-05T12:38:13;97950.50;;;27.25;37.64
75513;BME280;64090;49.770;18.760;2023-06-05T12:41:18;97949.73;;;27.37;37.52
75513;BME280;64090;49.770;18.760;2023-06-05T12:44:30;97947.72;;;27.43;37.42
75513;BME280;64090;49.770;18.760;2023-06-05T12:47:35;97947.67;;;27.54;37.86
75513;BME280;64090;49.770;18.760;2023-06-05T12:50:40;97948.41;;;27.72;37.67
75513;BME280;64090;49.770;18.760;2023-06-05T12:54:02;97939.76;;;27.87;37.53
75513;BME280;64090;49.770;18.760;2023-06-05T12:57:10;97939.37;;;27.99;36.95
75513;BME280;64090;49.770;18.760;2023-06-05T13:00:35;97936.13;;;28.21;36.25
75513;BME280;64090;49.770;18.760;2023-06-05T13:04:03;97933.55;;;28.45;36.00
75513;BME280;64090;49.770;18.760;2023-06-05T13:07:11;97930.34;;;28.58;35.71
75513;BME280;64090;49.770;18.760;2023-06-05T13:10:18;97930.88;;;28.52;36.28
75513;BME280;64090;49.770;18.760;2023-06-05T13:13:47;97932.06;;;28.45;36.43
75513;BME280;64090;49.770;18.760;2023-06-05T13:16:52;97932.86;;;28.29;35.57
75513;BME280;64090;49.770;18.760;2023-06-05T13:20:00;97939.73;;;27.70;35.74
75513;BME280;64090;49.770;18.760;2023-06-05T13:23:05;97935.17;;;27.16;36.78
75513;BME280;64090;49.770;18.760;2023-06-05T13:26:11;97937.10;;;26.93;37.44
75513;BME280;64090;49.770;18.760;2023-06-05T13:29:49;97934.80;;;26.77;38.73
75513;BME280;64090;49.770;18.760;2023-06-05T13:32:53;97931.82;;;26.81;38.25
75513;BME280;64090;49.770;18.760;2023-06-05T13:36:35;97931.55;;;26.98;39.01
75513;BME280;64090;49.770;18.760;2023-06-05T13:39:54;97931.06;;;26.73;38.60
75513;BME280;64090;49.770;18.760;2023-06-05T13:42:59;97931.98;;;26.76;38.57
75513;BME280;64090;49.770;18.760;2023-06-05T13:46:02;97930.83;;;26.77;38.85
75513;BME280;64090;49.770;18.760;2023-06-05T13:49:17;97928.64;;;26.74;38.77
75513;BME280;64090;49.770;18.760;2023-06-05T13:52:25;97924.14;;;26.51;38.86
75513;BME280;64090;49.770;18.760;2023-06-05T13:55:36;97921.05;;;26.36;39.17
75513;BME280;64090;49.770;18.760;2023-06-05T13:59:03;97918.24;;;26.40;39.35
75513;BME280;64090;49.770;18.760;2023-06-05T14:02:11;97917.05;;;26.48;40.66
75513;BME280;64090;49.770;18.760;2023-06-05T14:05:45;97914.38;;;26.54;40.72
75513;BME280;64090;49.770;18.760;2023-06-05T14:09:16;97914.94;;;26.70;40.10
75513;BME280;64090;49.770;18.760;2023-06-05T14:12:38;97909.02;;;26.89;40.80
75513;BME280;64090;49.770;18.760;2023-06-05T14:15:55;97905.35;;;27.05;39.96
75513;BME280;64090;49.770;18.760;2023-06-05T14:19:06;97904.54;;;27.04;39.37
75513;BME280;64090;49.770;18.760;2023-06-05T14:22:18;97906.06;;;26.98;39.40
75513;BME280;64090;49.770;18.760;2023-06-05T14:25:22;97903.88;;;26.90;39.67
75513;BME280;64090;49.770;18.760;2023-06-05T14:29:01;97903.83;;;26.71;39.31
75513;BME280;64090;49.770;18.760;2023-06-05T14:32:44;97900.13;;;26.68;39.65
75513;BME280;64090;49.770;18.760;2023-06-05T14:35:52;97894.80;;;26.59;39.92
75513;BME280;64090;49.770;18.760;2023-06-05T14:39:00;97891.51;;;26.49;40.00
75513;BME280;64090;49.770;18.760;2023-06-05T14:42:06;97893.27;;;26.30;40.19
75513;BME280;64090;49.770;18.760;2023-06-05T14:45:14;97889.85;;;26.09;41.37
75513;BME280;64090;49.770;18.760;2023-06-05T14:48:19;97891.30;;;25.78;40.87
75513;BME280;64090;49.770;18.760;2023-06-05T14:51:24;97894.07;;;25.41;40.64
75513;BME280;64090;49.770;18.760;2023-06-05T14:54:29;97892.32;;;25.09;41.27
75513;BME280;64090;49.770;18.760;2023-06-05T14:57:35;97891.75;;;24.94;41.21
75513;BME280;64090;49.770;18.760;2023-06-05T15:00:43;97888.39;;;24.69;41.59
75513;BME280;64090;49.770;18.760;2023-06-05T15:03:50;97887.70;;;24.46;42.11
75513;BME280;64090;49.770;18.760;2023-06-05T15:06:57;97886.39;;;24.29;42.27
75513;BME280;64090;49.770;18.760;2023-06-05T15:10:07;97886.09;;;24.09;42.55
75513;BME280;64090;49.770;18.760;2023-06-05T15:13:46;97886.94;;;23.80;42.70
75513;BME280;64090;49.770;18.760;2023-06-05T15:16:53;97889.89;;;23.65;43.59
75513;BME280;64090;49.770;18.760;2023-06-05T15:20:40;97894.20;;;23.51;43.37
75513;BME280;64090;49.770;18.760;2023-06-05T15:23:54;97890.56;;;23.32;44.08
75513;BME280;64090;49.770;18.760;2023-06-05T15:27:15;97889.27;;;23.17;44.11
75513;BME280;64090;49.770;18.760;2023-06-05T15:30:40;97889.12;;;22.93;45.04
75513;BME280;64090;49.770;18.760;2023-06-05T15:34:05;97890.23;;;22.69;45.33
75513;BME280;64090;49.770;18.760;2023-06-05T15:37:28;97888.61;;;22.35;45.59
75513;BME280;64090;49.770;18.760;2023-06-05T15:40:37;97884.94;;;22.19;45.44
75513;BME280;64090;49.770;18.760;2023-06-05T15:43:43;97880.86;;;21.99;45.78
75513;BME280;64090;49.770;18.760;2023-06-05T15:47:08;97878.20;;;21.85;46.02
75513;BME280;64090;49.770;18.760;2023-06-05T15:50:17;97878.06;;;21.72;46.65
75513;BME280;64090;49.770;18.760;2023-06-05T15:53:23;97883.50;;;21.61;46.75
75513;BME280;64090;49.770;18.760;2023-06-05T15:56:27;97880.65;;;21.48;47.75
75513;BME280;64090;49.770;18.760;2023-06-05T15:59:33;97881.61;;;21.36;47.72
75513;BME280;64090;49.770;18.760;2023-06-05T16:02:47;97877.77;;;21.28;48.12
75513;BME280;64090;49.770;18.760;2023-06-05T16:05:56;97877.92;;;21.23;48.67
75513;BME280;64090;49.770;18.760;2023-06-05T16:09:11;97877.88;;;21.14;48.08
75513;BME280;64090;49.770;18.760;2023-06-05T16:12:15;97879.55;;;21.05;48.10
75513;BME280;64090;49.770;18.760;2023-06-05T16:15:43;97879.52;;;20.93;48.70
75513;BME280;64090;49.770;18.760;2023-06-05T16:18:50;97871.89;;;20.78;49.15
75513;BME280;64090;49.770;18.760;2023-06-05T16:22:13;97869.46;;;20.68;49.68
75513;BME280;64090;49.770;18.760;2023-06-05T16:25:24;97870.91;;;20.54;51.06
75513;BME280;64090;49.770;18.760;2023-06-05T16:28:39;97868.63;;;20.50;50.15
75513;BME280;64090;49.770;18.760;2023-06-05T16:31:48;97869.86;;;20.48;49.78
75513;BME280;64090;49.770;18.760;2023-06-05T16:35:16;97869.23;;;20.42;50.17
75513;BME280;64090;49.770;18.760;2023-06-05T16:38:23;97868.30;;;20.35;50.25
75513;BME280;64090;49.770;18.760;2023-06-05T16:41:46;97869.19;;;20.26;50.96
75513;BME280;64090;49.770;18.760;2023-06-05T16:44:58;97865.05;;;20.17;52.53
75513;BME280;64090;49.770;18.760;2023-06-05T16:48:21;97864.70;;;20.10;52.02
75513;BME280;64090;49.770;18.760;2023-06-05T16:51:28;97867.48;;;20.06;51.82
75513;BME280;64090;49.770;18.760;2023-06-05T16:54:52;97860.51;;;20.01;51.42
75513;BME280;64090;49.770;18.760;2023-06-05T16:58:10;97860.00;;;19.98;51.78
75513;BME280;64090;49.770;18.760;2023-06-05T17:01:22;97860.36;;;19.92;52.27
75513;BME280;64090;49.770;18.760;2023-06-05T17:04:27;97859.37;;;19.89;53.98